createdAt,value
2022-10-29T00:02:08.617Z,101121.41
2022-10-29T00:07:10.076Z,101130.06
2022-10-29T00:12:11.649Z,101119.97
2022-10-29T00:17:13.096Z,101112.47
2022-10-29T00:22:15.440Z,101118.28
2022-10-29T00:27:17.072Z,101116.16
2022-10-29T00:32:18.670Z,101115.25
2022-10-29T00:37:20.147Z,101119.78
2022-10-29T00:42:21.588Z,101118.56
2022-10-29T00:47:31.962Z,101111.13
2022-10-29T00:52:37.336Z,101108.72
2022-10-29T00:57:41.849Z,101111.81
2022-10-29T01:02:44.242Z,101122.72
2022-10-29T01:07:46.726Z,101107.84
2022-10-29T01:13:06.355Z,101099.47
2022-10-29T01:18:20.203Z,101090.81
2022-10-29T01:23:21.644Z,101089.97
2022-10-29T01:28:41.688Z,101094.28
2022-10-29T01:33:46.106Z,101100.97
2022-10-29T01:39:19.997Z,101090.41
2022-10-29T01:44:36.817Z,101093.22
2022-10-29T01:49:41.756Z,101089.34
2022-10-29T01:54:45.913Z,101078.72
2022-10-29T01:59:55.509Z,101074.81
2022-10-29T02:05:37.971Z,101081.44
2022-10-29T02:10:53.451Z,101096.25
2022-10-29T02:15:56.954Z,101089.63
2022-10-29T02:20:58.438Z,101079.56
2022-10-29T02:25:59.922Z,101080.50
2022-10-29T02:31:01.441Z,101076.91
2022-10-29T02:36:02.979Z,101088.22
2022-10-29T02:41:04.636Z,101084.13
2022-10-29T02:46:19.470Z,101083.81
2022-10-29T02:51:21.161Z,101083.50
2022-10-29T02:56:22.633Z,101080.25
2022-10-29T03:01:24.339Z,101075.22
2022-10-29T03:06:25.940Z,101069.97
2022-10-29T03:11:27.381Z,101058.00
2022-10-29T03:16:28.860Z,101062.72
2022-10-29T03:21:30.331Z,101061.53
2022-10-29T03:26:31.958Z,101051.97
2022-10-29T03:31:33.388Z,101068.88
2022-10-29T03:36:34.855Z,101070.22
2022-10-29T03:41:36.282Z,101071.13
2022-10-29T03:46:37.779Z,101083.66
2022-10-29T03:51:39.368Z,101074.72
2022-10-29T03:56:40.816Z,101072.22
2022-10-29T04:01:42.359Z,101054.69
2022-10-29T04:06:43.995Z,101059.41
2022-10-29T04:11:45.519Z,101070.50
2022-10-29T04:16:47.166Z,101063.56
2022-10-29T04:32:31.736Z,101060.00
2022-10-29T04:37:33.133Z,101058.84
2022-10-29T04:42:39.363Z,101057.88
2022-10-29T04:47:40.951Z,101046.88
2022-10-29T04:52:42.355Z,101054.72
2022-10-29T04:57:49.426Z,101053.88
2022-10-29T05:02:52.471Z,101054.31
2022-10-29T05:08:00.962Z,101048.28
2022-10-29T05:13:04.956Z,101038.00
2022-10-29T05:18:07.144Z,101027.25
2022-10-29T05:23:10.881Z,101024.94
2022-10-29T05:28:14.561Z,101020.88
2022-10-29T05:33:19.311Z,101014.47
2022-10-29T05:38:20.753Z,101014.34
2022-10-29T05:43:22.179Z,101018.22
2022-10-29T05:48:23.672Z,101023.59
2022-10-29T05:53:25.151Z,101016.44
2022-10-29T05:58:26.559Z,101019.69
2022-10-29T06:03:28.046Z,101021.38
2022-10-29T06:08:29.570Z,101033.00
2022-10-29T06:13:31.112Z,101028.34
2022-10-29T06:18:32.502Z,101023.63
2022-10-29T06:23:33.886Z,101018.91
2022-10-29T06:28:35.274Z,101009.84
2022-10-29T06:33:36.739Z,101009.06
2022-10-29T06:38:38.234Z,101014.16
2022-10-29T06:43:39.811Z,101005.81
2022-10-29T06:48:41.256Z,101001.03
2022-10-29T06:53:42.740Z,100993.66
2022-10-29T06:58:44.121Z,101004.81
2022-10-29T07:03:45.570Z,101010.72
2022-10-29T07:08:46.986Z,101007.72
2022-10-29T07:13:48.419Z,101009.84
2022-10-29T07:18:49.875Z,101005.97
2022-10-29T07:23:51.331Z,101012.31
2022-10-29T07:28:55.378Z,101013.06
2022-10-29T07:33:57.116Z,101016.47
2022-10-29T07:38:58.843Z,101015.59
2022-10-29T07:44:00.246Z,101022.00
2022-10-29T07:49:01.837Z,101019.78
2022-10-29T07:54:03.416Z,101023.53
2022-10-29T07:59:04.860Z,101027.44
2022-10-29T08:04:09.388Z,101020.75
2022-10-29T08:09:11.968Z,101018.53
2022-10-29T08:14:14.976Z,101021.06
2022-10-29T08:19:18.152Z,101016.03
2022-10-29T08:24:19.589Z,101022.47
2022-10-29T08:29:21.101Z,101014.91
2022-10-29T08:34:22.472Z,101009.75
2022-10-29T08:39:24.062Z,101007.13
2022-10-29T08:44:57.414Z,101015.22
2022-10-29T08:50:04.856Z,101019.16
2022-10-29T08:55:14.156Z,101021.94
2022-10-29T09:00:20.156Z,101011.81
2022-10-29T09:05:24.938Z,101015.00
2022-10-29T09:10:38.454Z,101012.91
2022-10-29T09:15:59.033Z,101006.69
2022-10-29T09:21:15.837Z,101007.78
2022-10-29T09:26:38.712Z,101002.16
2022-10-29T09:31:48.860Z,100992.47
2022-10-29T09:36:50.368Z,100986.25
2022-10-29T09:41:53.792Z,100990.25
2022-10-29T09:47:04.374Z,100993.25
2022-10-29T09:52:22.679Z,100993.56
2022-10-29T09:57:25.936Z,100995.97
2022-10-29T10:02:38.092Z,100990.34
2022-10-29T10:07:40.309Z,100987.22
2022-10-29T10:12:47.452Z,100990.59
2022-10-29T10:18:19.557Z,100991.53
2022-10-29T10:23:25.089Z,100978.78
2022-10-29T10:28:31.491Z,100970.09
2022-10-29T10:33:35.048Z,100969.78
2022-10-29T10:38:43.146Z,100973.81
2022-10-29T10:43:46.238Z,100960.81
2022-10-29T10:48:58.180Z,100956.44
2022-10-29T10:54:03.120Z,100945.66
2022-10-29T10:59:15.483Z,100943.94
2022-10-29T11:04:34.765Z,100944.94
2022-10-29T11:09:50.115Z,100940.16
2022-10-29T11:14:55.693Z,100933.13
2022-10-29T11:20:06.793Z,100933.47
2022-10-29T11:25:16.909Z,100923.09
2022-10-29T11:30:19.697Z,100918.75
2022-10-29T11:35:29.889Z,100918.81
2022-10-29T11:40:44.513Z,100920.72
2022-10-29T11:46:00.892Z,100926.19
2022-10-29T11:51:13.066Z,100914.09
2022-10-29T11:56:41.962Z,100892.13
2022-10-29T12:02:19.895Z,100905.81
2022-10-29T12:07:59.003Z,100901.00
2022-10-29T12:13:19.350Z,100901.91
2022-10-29T12:18:29.871Z,100890.47
2022-10-29T14:41:05.831Z,100808.97
2022-10-29T14:46:42.138Z,100803.16
2022-10-29T14:51:53.291Z,100809.13
2022-10-29T14:56:59.028Z,100804.41
2022-10-29T15:02:32.096Z,100801.84
2022-10-29T15:07:32.723Z,100808.00
2022-10-29T15:12:37.242Z,100805.72
2022-10-29T15:17:50.182Z,100807.84
2022-10-29T15:22:56.559Z,100798.13
2022-10-29T15:27:59.263Z,100806.66
2022-10-29T15:33:03.805Z,100805.13
2022-10-29T15:38:05.409Z,100810.78
2022-10-29T15:43:29.819Z,100806.50
2022-10-29T15:48:37.275Z,100803.56
2022-10-29T15:53:38.869Z,100801.34
2022-10-29T15:58:41.373Z,100804.91
2022-10-29T16:03:43.567Z,100801.19
2022-10-29T16:08:51.163Z,100795.31
2022-10-29T16:13:54.992Z,100804.09
2022-10-29T16:18:56.915Z,100801.72
2022-10-29T16:23:58.487Z,100805.41
2022-10-29T16:28:59.944Z,100803.56
2022-10-29T16:34:04.463Z,100803.84
2022-10-29T16:39:05.908Z,100798.22
2022-10-29T16:44:07.328Z,100804.38
2022-10-29T16:49:08.726Z,100798.91
2022-10-29T16:54:10.124Z,100789.94
2022-10-29T16:59:11.626Z,100780.56
2022-10-29T17:04:13.181Z,100797.22
2022-10-29T17:09:14.929Z,100786.22
2022-10-29T17:14:16.392Z,100795.13
2022-10-29T17:19:17.884Z,100791.09
2022-10-29T17:24:19.288Z,100791.84
2022-10-29T17:29:20.740Z,100794.13
2022-10-29T17:34:22.167Z,100791.53
2022-10-29T17:39:23.809Z,100799.31
2022-10-29T17:44:25.627Z,100789.63
2022-10-29T17:49:27.138Z,100791.94
2022-10-29T17:54:28.624Z,100791.09
2022-10-29T17:59:30.084Z,100798.31
2022-10-29T18:04:31.508Z,100798.63
2022-10-29T18:09:32.909Z,100802.88
2022-10-29T18:14:34.323Z,100811.75
2022-10-29T18:19:35.738Z,100811.19
2022-10-29T18:24:37.206Z,100809.41
2022-10-29T18:29:38.738Z,100812.63
2022-10-29T18:34:40.303Z,100803.72
2022-10-29T18:39:41.805Z,100807.81
2022-10-29T18:44:43.386Z,100807.41
2022-10-29T18:49:44.961Z,100804.97
2022-10-29T18:54:46.530Z,100794.66
2022-10-29T18:59:48.031Z,100790.84
2022-10-29T19:04:49.494Z,100796.03
2022-10-29T19:09:51.027Z,100805.28
2022-10-29T19:14:53.264Z,100799.69
2022-10-29T19:19:54.811Z,100802.78
2022-10-29T19:24:56.433Z,100803.50
2022-10-29T19:29:57.992Z,100802.25
2022-10-29T19:34:59.529Z,100799.78
2022-10-29T19:40:00.989Z,100802.59
2022-10-29T19:45:02.566Z,100807.59
2022-10-29T19:50:04.257Z,100804.69
2022-10-29T19:55:06.337Z,100797.53
2022-10-29T20:00:12.146Z,100799.25
2022-10-29T20:05:16.353Z,100804.44
2022-10-29T20:10:18.195Z,100807.81
2022-10-29T20:15:19.661Z,100794.66
2022-10-29T20:20:21.125Z,100786.00
2022-10-29T20:25:23.984Z,100796.06
2022-10-29T20:30:25.735Z,100791.03
2022-10-29T20:35:27.188Z,100784.75
2022-10-29T20:40:28.639Z,100784.47
2022-10-29T20:45:30.193Z,100790.75
2022-10-29T20:50:31.665Z,100797.75
2022-10-29T20:55:34.242Z,100798.03
2022-10-29T21:00:38.129Z,100793.13
2022-10-29T21:05:39.858Z,100787.41
2022-10-29T21:10:41.339Z,100797.19
2022-10-29T21:15:42.842Z,100793.28
2022-10-29T21:20:44.264Z,100788.34
2022-10-29T21:25:52.589Z,100777.16
2022-10-29T21:30:54.095Z,100777.91
2022-10-29T21:35:56.683Z,100790.19
2022-10-29T21:40:58.162Z,100793.13
2022-10-29T21:45:59.658Z,100793.84
2022-10-29T21:51:12.605Z,100796.78
2022-10-29T21:56:15.020Z,100799.69
2022-10-29T22:01:17.131Z,100795.38
2022-10-29T22:06:21.227Z,100798.44
2022-10-29T22:11:23.680Z,100796.34
2022-10-29T22:16:25.120Z,100795.38
2022-10-29T22:21:26.665Z,100800.41
2022-10-29T22:26:29.558Z,100790.34
2022-10-29T22:31:31.212Z,100794.69
2022-10-29T22:36:32.745Z,100802.34
2022-10-29T22:41:34.240Z,100794.81
2022-10-29T22:46:35.803Z,100784.19
2022-10-29T22:51:37.250Z,100780.00
2022-10-29T22:56:38.679Z,100781.78
2022-10-29T23:01:44.022Z,100778.75
2022-10-29T23:06:47.073Z,100767.44
2022-10-29T23:11:48.490Z,100765.75
2022-10-29T23:16:49.894Z,100768.00
2022-10-29T23:21:52.748Z,100764.94
2022-10-29T23:26:54.381Z,100764.38
2022-10-29T23:31:56.045Z,100762.72
2022-10-29T23:36:57.562Z,100767.16
2022-10-29T23:41:59.037Z,100770.38
2022-10-29T23:47:00.661Z,100777.09
2022-10-29T23:52:02.085Z,100765.75
2022-10-29T23:57:03.886Z,100755.72
